Bissell, Connecticut
Current Conditions -  °F | °C
As of 1:37 AM on Thursday 27 Nov 2014 (Local Time) from KHFD Reporting Station
Overcast Overcast  
Wind Chill: 28°   Ceiling: 8000
Heat Index: 34°   Visibility: 10mi
Dew Point: 32°   Wind: 7mph
Humidity: 92%   Direction: 340°NNW
Pressure: 29.81"   Gusts: NA
Location:  41.8353°N, 72.5722°W
Report Text: KHFD 270637Z AUTO 34006KT 10SM FEW008 SCT024 OVC080 01/00 A2981 RMK AO2 SNE31 P0001 T00110000
Loading
Personal Weather Stations






























Interactive Weather Map New forecast layout! Learn more

10-Day Weather Forecast

Advertisements
Track Severe Weather on mobile